Delta Hellas — SVAK8 — position and weather

sailwx.info

Track history (hours):
 
Tides and Currents Weather Stations Pressure Air Temp Water Temp Dewpoint Dewpoint Depression Visibility Wind Speed Wind Dir Waves Ship Positions

Delta Hellas

Last reported at 2017-Nov-15 13:24 UTC. Time now 2017-Nov-22 09:06 UTC.
Position N 27°41' W 016°26'.

Length 276 m; draft 9 m.

Type: Tanker. MMSI: 240820000.

Date/timePositionNaut miles runAvg speedWind from/ knotsBaromVisibWave heightAir tempDewpointWater temp
2017-Nov-15 13:24N 27°41' W 016°26'3910.7
2017-Nov-15 09:45N 28°16' W 016°06'310.5
2017-Nov-15 09:30N 28°18' W 016°04'510.6
2017-Nov-15 09:00N 28°21' W 015°60'510.7
2017-Nov-15 08:30N 28°26' W 015°56'510.8
2017-Nov-15 08:00N 28°30' W 015°52'510.8
2017-Nov-15 07:30N 28°34' W 015°48'510.8
2017-Nov-15 07:00N 28°39' W 015°45'611.0
2017-Nov-15 06:30N 28°44' W 015°44'611.1
2017-Nov-15 06:00N 28°50' W 015°43'611.1
2017-Nov-15 05:30N 28°55' W 015°42'611.0
2017-Nov-15 05:00N 29°01' W 015°41'5710.9
2017-Nov-14 23:50N 29°55' W 015°24'510.9
2017-Nov-14 23:24N 29°60' W 015°22'1310.8
2017-Nov-14 22:10N 30°12' W 015°18'611.0
2017-Nov-14 21:39N 30°18' W 015°16'211.1
2017-Nov-14 21:29N 30°20' W 015°15'2111.0
2017-Nov-14 19:36N 30°40' W 015°08'49110.8
2017-Nov-12 22:02N 38°29' W 012°16'011.3
2017-Nov-12 22:00N 38°30' W 012°16'1311.3
2017-Nov-12 20:52N 38°42' W 012°11'511.4
2017-Nov-12 20:24N 38°47' W 012°09'811.5
2017-Nov-12 19:43N 38°54' W 012°06'311.2
2017-Nov-12 19:28N 38°57' W 012°05'611.0
2017-Nov-12 18:55N 39°03' W 012°03'1011.0
2017-Nov-12 18:02N 39°12' W 011°60'010.9
2017-Nov-12 18:00N 39°13' W 011°59'610.9
2017-Nov-12 17:30N 39°18' W 011°57'1711.1
2017-Nov-12 16:00N 39°34' W 011°51'  
2017-Nov-10 07:35N 48°56' W 005°43'410.8
2017-Nov-10 07:11N 48°58' W 005°37'2310.0
2017-Nov-10 04:54N 49°09' W 005°07'510.2
2017-Nov-10 04:27N 49°12' W 005°01'510.5
2017-Nov-10 03:56N 49°15' W 004°54'511.2
2017-Nov-10 03:28N 49°17' W 004°47'3211.4
2017-Nov-10 00:40N 49°34' W 004°05'511.1
2017-Nov-10 00:15N 49°36' W 003°59'411.1
2017-Nov-09 23:55N 49°38' W 003°54'510.7
2017-Nov-09 23:26N 49°40' W 003°47'510.6
2017-Nov-09 23:00N 49°43' W 003°41'510.5
2017-Nov-09 22:30N 49°45' W 003°34'510.2
2017-Nov-09 22:00N 49°48' W 003°27'510.4
2017-Nov-09 21:30N 49°51' W 003°21'510.0
2017-Nov-09 21:00N 49°53' W 003°14'510.1
2017-Nov-09 20:30N 49°56' W 003°07'510.4
2017-Nov-09 20:00N 49°59' W 003°01'510.0
2017-Nov-09 19:30N 50°00' W 002°53'510.1
2017-Nov-09 19:00N 50°01' W 002°45'4 8.4
2017-Nov-09 18:30N 50°03' W 002°39'5 8.7
2017-Nov-09 17:59N 50°04' W 002°32'10 9.5
2017-Nov-09 16:54N 50°07' W 002°17'512.3
2017-Nov-09 16:30N 50°08' W 002°10'612.4
2017-Nov-09 16:00N 50°09' W 002°00'612.3
2017-Nov-09 15:30N 50°11' W 001°51'612.3
2017-Nov-09 15:00N 50°13' W 001°42'612.3
2017-Nov-09 14:31N 50°14' W 001°33'611.7
2017-Nov-09 14:00N 50°16' W 001°24'611.4
2017-Nov-09 13:30N 50°17' W 001°15'610.9
2017-Nov-09 13:00N 50°18' W 001°07'1110.1
2017-Nov-09 11:51N 50°22' W 000°49'1410.1
2017-Nov-09 10:28N 50°25' W 000°28'510.6
2017-Nov-09 10:00N 50°27' W 000°21'510.3
2017-Nov-09 09:30N 50°29' W 000°13'510.1
2017-Nov-09 09:00N 50°30' W 000°06'510.6
2017-Nov-09 08:30N 50°31' E 000°03'510.4
2017-Nov-09 08:00N 50°32' E 000°10'510.5
2017-Nov-09 07:30N 50°34' E 000°18'510.7
2017-Nov-09 07:00N 50°36' E 000°26'510.6
2017-Nov-09 06:30N 50°38' E 000°34'510.6
2017-Nov-09 06:00N 50°40' E 000°41'510.9
2017-Nov-09 05:30N 50°43' E 000°48'611.2
2017-Nov-09 05:00N 50°47' E 000°55'510.9
2017-Nov-09 04:30N 50°50' E 001°02'510.4
2017-Nov-09 04:00N 50°53' E 001°09'5 9.6
2017-Nov-09 03:30N 50°56' E 001°15'4 8.0
2017-Nov-09 03:00N 50°59' E 001°19'4 7.5
2017-Nov-09 02:30N 51°02' E 001°23'4 8.5
2017-Nov-09 02:00N 51°04' E 001°28'5 9.4
2017-Nov-09 01:30N 51°07' E 001°35'5 9.7
2017-Nov-09 01:00N 51°10' E 001°41'611.1
2017-Nov-09 00:30N 51°14' E 001°47'611.8
2017-Nov-09 00:00N 51°19' E 001°51'612.3
2017-Nov-08 23:30N 51°25' E 001°56'612.2
2017-Nov-08 23:00N 51°30' E 002°02'612.1
2017-Nov-08 22:30N 51°34' E 002°08'611.9
2017-Nov-08 22:00N 51°39' E 002°14'611.7
2017-Nov-08 21:30N 51°44' E 002°20'30 1.1
2017-Nov-07 18:04N 52°08' E 002°49'0 0.1
2017-Nov-07 17:58N 52°08' E 002°49'0 0.0
2017-Nov-07 17:28N 52°08' E 002°49'0 0.0
2017-Nov-07 16:58N 52°08' E 002°49'0 0.0
2017-Nov-07 16:28N 52°08' E 002°49'0 0.0
2017-Nov-07 15:58N 52°08' E 002°49'1 0.1
2017-Nov-07 02:59N 52°09' E 002°51'2 4.2
2017-Nov-07 02:28N 52°11' E 002°53'3 5.5
2017-Nov-07 01:59N 52°13' E 002°56'4 7.8
2017-Nov-07 01:30N 52°14' E 003°01'5 9.5
2017-Nov-07 01:00N 52°15' E 003°09'5 9.5
2017-Nov-07 00:29N 52°13' E 003°16'5 9.8
2017-Nov-06 23:59N 52°11' E 003°23'5 9.9
2017-Nov-06 23:30N 52°09' E 003°30'510.0
2017-Nov-06 23:00N 52°06' E 003°38'510.3
2017-Nov-06 22:30N 52°05' E 003°45'5 9.7
2017-Nov-06 22:00N 52°03' E 003°53'510.8
2017-Nov-06 21:30N 52°00' E 004°00'611.5
2017-Nov-06 21:00N 51°57' E 004°08'1 1.9
2017-Nov-06 20:26N 51°57' E 004°10'0 0.0
2017-Nov-06 02:29N 51°57' E 004°10'0 0.0
2017-Nov-06 01:59N 51°57' E 004°10'0 0.0
2017-Nov-06 01:29N 51°57' E 004°10'0 0.0
2017-Nov-06 00:53N 51°57' E 004°10'0 0.0
2017-Nov-06 00:29N 51°57' E 004°10'0 0.0
2017-Nov-05 23:59N 51°57' E 004°10'0 0.0
2017-Nov-05 23:29N 51°57' E 004°10'0 0.0
2017-Nov-05 22:59N 51°57' E 004°10'0 0.0
2017-Nov-05 22:29N 51°57' E 004°10'0 0.0
2017-Nov-05 21:59N 51°57' E 004°10'0 0.0
2017-Nov-05 21:26N 51°57' E 004°10'0 0.0
2017-Nov-05 20:59N 51°57' E 004°10'0 0.0
2017-Nov-05 20:26N 51°57' E 004°10'0 0.0
2017-Nov-05 19:59N 51°57' E 004°10'0 0.0
2017-Nov-05 19:29N 51°57' E 004°10'0 0.0
2017-Nov-05 18:59N 51°57' E 004°10'0 0.0
2017-Nov-05 18:29N 51°57' E 004°10'0 0.0
2017-Nov-05 17:59N 51°57' E 004°10'0 0.0
2017-Nov-05 17:29N 51°57' E 004°10'0 0.0
2017-Nov-05 16:59N 51°57' E 004°10'0 0.0
2017-Nov-05 16:29N 51°57' E 004°10'0 0.0
2017-Nov-05 15:59N 51°57' E 004°10'0 0.0
2017-Nov-05 15:29N 51°57' E 004°10'0 0.0
2017-Nov-05 14:59N 51°57' E 004°10'0 0.0
2017-Nov-05 14:26N 51°57' E 004°10'0 0.0
2017-Nov-05 13:59N 51°57' E 004°10'0 0.0
2017-Nov-05 13:29N 51°57' E 004°10'  
Track history (hours):
 
Tides and Currents Weather Stations Pressure Air Temp Water Temp Dewpoint Dewpoint Depression Visibility Wind Speed Wind Dir Waves Ship Positions

Delta Hellas

Last reported at 2017-Nov-15 13:24 UTC. Time now 2017-Nov-22 09:06 UTC.
Position N 27°41' W 016°26'.

Length 276 m; draft 9 m.

Type: Tanker. MMSI: 240820000.

Date/timePositionNaut miles runAvg speedWind from/ knotsBaromVisibWave heightAir tempDewpointWater temp
2017-Nov-15 13:24N 27°41' W 016°26'3910.7
2017-Nov-15 09:45N 28°16' W 016°06'310.5
2017-Nov-15 09:30N 28°18' W 016°04'510.6
2017-Nov-15 09:00N 28°21' W 015°60'510.7
2017-Nov-15 08:30N 28°26' W 015°56'510.8
2017-Nov-15 08:00N 28°30' W 015°52'510.8
2017-Nov-15 07:30N 28°34' W 015°48'510.8
2017-Nov-15 07:00N 28°39' W 015°45'611.0
2017-Nov-15 06:30N 28°44' W 015°44'611.1
2017-Nov-15 06:00N 28°50' W 015°43'611.1
2017-Nov-15 05:30N 28°55' W 015°42'611.0
2017-Nov-15 05:00N 29°01' W 015°41'5710.9
2017-Nov-14 23:50N 29°55' W 015°24'510.9
2017-Nov-14 23:24N 29°60' W 015°22'1310.8
2017-Nov-14 22:10N 30°12' W 015°18'611.0
2017-Nov-14 21:39N 30°18' W 015°16'211.1
2017-Nov-14 21:29N 30°20' W 015°15'2111.0
2017-Nov-14 19:36N 30°40' W 015°08'49110.8
2017-Nov-12 22:02N 38°29' W 012°16'011.3
2017-Nov-12 22:00N 38°30' W 012°16'1311.3
2017-Nov-12 20:52N 38°42' W 012°11'511.4
2017-Nov-12 20:24N 38°47' W 012°09'811.5
2017-Nov-12 19:43N 38°54' W 012°06'311.2
2017-Nov-12 19:28N 38°57' W 012°05'611.0
2017-Nov-12 18:55N 39°03' W 012°03'1011.0
2017-Nov-12 18:02N 39°12' W 011°60'010.9
2017-Nov-12 18:00N 39°13' W 011°59'610.9
2017-Nov-12 17:30N 39°18' W 011°57'1711.1
2017-Nov-12 16:00N 39°34' W 011°51'  
2017-Nov-10 07:35N 48°56' W 005°43'410.8
2017-Nov-10 07:11N 48°58' W 005°37'2310.0
2017-Nov-10 04:54N 49°09' W 005°07'510.2
2017-Nov-10 04:27N 49°12' W 005°01'510.5
2017-Nov-10 03:56N 49°15' W 004°54'511.2
2017-Nov-10 03:28N 49°17' W 004°47'3211.4
2017-Nov-10 00:40N 49°34' W 004°05'511.1
2017-Nov-10 00:15N 49°36' W 003°59'411.1
2017-Nov-09 23:55N 49°38' W 003°54'510.7
2017-Nov-09 23:26N 49°40' W 003°47'510.6
2017-Nov-09 23:00N 49°43' W 003°41'510.5
2017-Nov-09 22:30N 49°45' W 003°34'510.2
2017-Nov-09 22:00N 49°48' W 003°27'510.4
2017-Nov-09 21:30N 49°51' W 003°21'510.0
2017-Nov-09 21:00N 49°53' W 003°14'510.1
2017-Nov-09 20:30N 49°56' W 003°07'510.4
2017-Nov-09 20:00N 49°59' W 003°01'510.0
2017-Nov-09 19:30N 50°00' W 002°53'510.1
2017-Nov-09 19:00N 50°01' W 002°45'4 8.4
2017-Nov-09 18:30N 50°03' W 002°39'5 8.7
2017-Nov-09 17:59N 50°04' W 002°32'10 9.5
2017-Nov-09 16:54N 50°07' W 002°17'512.3
2017-Nov-09 16:30N 50°08' W 002°10'612.4
2017-Nov-09 16:00N 50°09' W 002°00'612.3
2017-Nov-09 15:30N 50°11' W 001°51'612.3
2017-Nov-09 15:00N 50°13' W 001°42'612.3
2017-Nov-09 14:31N 50°14' W 001°33'611.7
2017-Nov-09 14:00N 50°16' W 001°24'611.4
2017-Nov-09 13:30N 50°17' W 001°15'610.9
2017-Nov-09 13:00N 50°18' W 001°07'1110.1
2017-Nov-09 11:51N 50°22' W 000°49'1410.1
2017-Nov-09 10:28N 50°25' W 000°28'510.6
2017-Nov-09 10:00N 50°27' W 000°21'510.3
2017-Nov-09 09:30N 50°29' W 000°13'510.1
2017-Nov-09 09:00N 50°30' W 000°06'510.6
2017-Nov-09 08:30N 50°31' E 000°03'510.4
2017-Nov-09 08:00N 50°32' E 000°10'510.5
2017-Nov-09 07:30N 50°34' E 000°18'510.7
2017-Nov-09 07:00N 50°36' E 000°26'510.6
2017-Nov-09 06:30N 50°38' E 000°34'510.6
2017-Nov-09 06:00N 50°40' E 000°41'510.9
2017-Nov-09 05:30N 50°43' E 000°48'611.2
2017-Nov-09 05:00N 50°47' E 000°55'510.9
2017-Nov-09 04:30N 50°50' E 001°02'510.4
2017-Nov-09 04:00N 50°53' E 001°09'5 9.6
2017-Nov-09 03:30N 50°56' E 001°15'4 8.0
2017-Nov-09 03:00N 50°59' E 001°19'4 7.5
2017-Nov-09 02:30N 51°02' E 001°23'4 8.5
2017-Nov-09 02:00N 51°04' E 001°28'5 9.4
2017-Nov-09 01:30N 51°07' E 001°35'5 9.7
2017-Nov-09 01:00N 51°10' E 001°41'611.1
2017-Nov-09 00:30N 51°14' E 001°47'611.8
2017-Nov-09 00:00N 51°19' E 001°51'612.3
2017-Nov-08 23:30N 51°25' E 001°56'612.2
2017-Nov-08 23:00N 51°30' E 002°02'612.1
2017-Nov-08 22:30N 51°34' E 002°08'611.9
2017-Nov-08 22:00N 51°39' E 002°14'611.7
2017-Nov-08 21:30N 51°44' E 002°20'30 1.1
2017-Nov-07 18:04N 52°08' E 002°49'0 0.1
2017-Nov-07 17:58N 52°08' E 002°49'0 0.0
2017-Nov-07 17:28N 52°08' E 002°49'0 0.0
2017-Nov-07 16:58N 52°08' E 002°49'0 0.0
2017-Nov-07 16:28N 52°08' E 002°49'0 0.0
2017-Nov-07 15:58N 52°08' E 002°49'1 0.1
2017-Nov-07 02:59N 52°09' E 002°51'2 4.2
2017-Nov-07 02:28N 52°11' E 002°53'3 5.5
2017-Nov-07 01:59N 52°13' E 002°56'4 7.8
2017-Nov-07 01:30N 52°14' E 003°01'5 9.5
2017-Nov-07 01:00N 52°15' E 003°09'5 9.5
2017-Nov-07 00:29N 52°13' E 003°16'5 9.8
2017-Nov-06 23:59N 52°11' E 003°23'5 9.9
2017-Nov-06 23:30N 52°09' E 003°30'510.0
2017-Nov-06 23:00N 52°06' E 003°38'510.3
2017-Nov-06 22:30N 52°05' E 003°45'5 9.7
2017-Nov-06 22:00N 52°03' E 003°53'510.8
2017-Nov-06 21:30N 52°00' E 004°00'611.5
2017-Nov-06 21:00N 51°57' E 004°08'1 1.9
2017-Nov-06 20:26N 51°57' E 004°10'0 0.0
2017-Nov-06 02:29N 51°57' E 004°10'0 0.0
2017-Nov-06 01:59N 51°57' E 004°10'0 0.0
2017-Nov-06 01:29N 51°57' E 004°10'0 0.0
2017-Nov-06 00:53N 51°57' E 004°10'0 0.0
2017-Nov-06 00:29N 51°57' E 004°10'0 0.0
2017-Nov-05 23:59N 51°57' E 004°10'0 0.0
2017-Nov-05 23:29N 51°57' E 004°10'0 0.0
2017-Nov-05 22:59N 51°57' E 004°10'0 0.0
2017-Nov-05 22:29N 51°57' E 004°10'0 0.0
2017-Nov-05 21:59N 51°57' E 004°10'0 0.0
2017-Nov-05 21:26N 51°57' E 004°10'0 0.0
2017-Nov-05 20:59N 51°57' E 004°10'0 0.0
2017-Nov-05 20:26N 51°57' E 004°10'0 0.0
2017-Nov-05 19:59N 51°57' E 004°10'0 0.0
2017-Nov-05 19:29N 51°57' E 004°10'0 0.0
2017-Nov-05 18:59N 51°57' E 004°10'0 0.0
2017-Nov-05 18:29N 51°57' E 004°10'0 0.0
2017-Nov-05 17:59N 51°57' E 004°10'0 0.0
2017-Nov-05 17:29N 51°57' E 004°10'0 0.0
2017-Nov-05 16:59N 51°57' E 004°10'0 0.0
2017-Nov-05 16:29N 51°57' E 004°10'0 0.0
2017-Nov-05 15:59N 51°57' E 004°10'0 0.0
2017-Nov-05 15:29N 51°57' E 004°10'0 0.0
2017-Nov-05 14:59N 51°57' E 004°10'0 0.0
2017-Nov-05 14:26N 51°57' E 004°10'0 0.0
2017-Nov-05 13:59N 51°57' E 004°10'0 0.0
2017-Nov-05 13:29N 51°57' E 004°10'  

Dump ship's entire track history